Time;durP1;ratioP1;P1;durP2;ratioP2;P2;SDS_P1;SDS_P2;PMS_P1;PMS_P2;Temp;Humidity;BMP_temperature;BMP_pressure;BME280_temperature;BME280_humidity;BME280_pressure;Samples;Min_cycle;Max_cycle;Signal;HPM_P1;HPM_P2
2023/03/02 00:02:08;;;;;;;22.38;9.88;;;4.70;76.40;;;;;;4967117;28;92659;-70
2023/03/02 00:04:39;;;;;;;22.27;9.60;;;4.60;77.10;;;;;;4976488;28;93911;-70
2023/03/02 00:07:10;;;;;;;20.55;9.25;;;4.50;76.70;;;;;;4968675;28;93413;-69
2023/03/02 00:09:36;;;;;;;23.52;10.05;;;4.40;76.40;;;;;;4968277;28;92979;-69
2023/03/02 00:12:03;;;;;;;23.05;10.13;;;4.30;76.70;;;;;;4966594;28;94430;-68
2023/03/02 00:14:29;;;;;;;21.45;9.95;;;4.30;77.20;;;;;;4966715;28;95251;-67
2023/03/02 00:16:55;;;;;;;22.05;9.93;;;4.20;77.20;;;;;;4974019;28;92871;-72
2023/03/02 00:19:21;;;;;;;24.60;10.50;;;4.10;77.90;;;;;;4969183;28;94141;-70
2023/03/02 00:21:46;;;;;;;23.65;10.40;;;3.90;78.30;;;;;;4969969;28;92725;-73
2023/03/02 00:24:14;;;;;;;23.58;10.32;;;3.70;78.80;;;;;;4965805;28;92661;-70
2023/03/02 00:26:40;;;;;;;24.40;10.30;;;3.60;79.30;;;;;;4964568;28;92959;-72
2023/03/02 00:29:06;;;;;;;20.60;9.80;;;3.50;79.30;;;;;;4965816;28;94578;-72
2023/03/02 00:31:32;;;;;;;23.85;10.02;;;3.50;79.40;;;;;;4971319;28;91886;-70
2023/03/02 00:33:58;;;;;;;24.17;10.55;;;3.40;79.70;;;;;;4969645;28;93095;-70
2023/03/02 00:36:24;;;;;;;23.67;10.07;;;3.30;80.00;;;;;;4970625;28;93809;-70
2023/03/02 00:38:53;;;;;;;25.00;10.95;;;3.30;80.30;;;;;;4974931;28;93336;-71
2023/03/02 00:41:20;;;;;;;24.67;11.00;;;3.20;80.60;;;;;;4966812;28;92564;-74
2023/03/02 00:43:47;;;;;;;25.52;10.13;;;3.10;80.90;;;;;;4970665;28;93592;-70
2023/03/02 00:46:21;;;;;;;22.83;10.05;;;3.10;81.00;;;;;;4967551;28;94160;-71
2023/03/02 00:48:47;;;;;;;23.27;10.20;;;3.00;80.90;;;;;;4964662;28;93639;-73
2023/03/02 00:51:13;;;;;;;23.75;9.98;;;2.90;81.90;;;;;;4968243;28;93987;-70
2023/03/02 00:53:40;;;;;;;22.98;10.02;;;2.80;82.60;;;;;;4964484;28;92689;-72
2023/03/02 00:56:07;;;;;;;23.77;9.90;;;2.80;83.00;;;;;;4969327;28;93107;-71
2023/03/02 00:58:32;;;;;;;26.00;10.88;;;2.80;82.80;;;;;;4968701;28;93702;-70
2023/03/02 01:00:58;;;;;;;25.63;10.90;;;2.70;82.90;;;;;;4970880;28;94284;-71
2023/03/02 01:03:24;;;;;;;23.88;10.23;;;2.60;83.30;;;;;;4976421;28;94237;-69
2023/03/02 01:05:55;;;;;;;24.73;10.30;;;2.50;83.60;;;;;;4970820;28;93862;-70
2023/03/02 01:08:21;;;;;;;23.13;9.98;;;2.50;83.40;;;;;;4967391;28;92726;-71
2023/03/02 01:10:48;;;;;;;25.38;10.55;;;2.50;84.00;;;;;;4967451;28;92479;-71
2023/03/02 01:13:13;;;;;;;26.25;10.43;;;2.50;84.20;;;;;;4967520;28;93685;-72
2023/03/02 01:15:39;;;;;;;27.52;10.07;;;2.40;83.80;;;;;;4975389;28;92896;-70
2023/03/02 01:18:04;;;;;;;25.27;10.30;;;2.30;84.30;;;;;;4967166;28;94058;-72
2023/03/02 01:20:31;;;;;;;25.08;10.38;;;2.40;84.10;;;;;;4970378;28;91751;-71
2023/03/02 01:22:56;;;;;;;28.20;10.63;;;2.40;84.10;;;;;;4966043;28;92582;-70
2023/03/02 01:25:22;;;;;;;23.98;10.10;;;2.40;84.10;;;;;;4968865;28;93025;-71
2023/03/02 01:27:48;;;;;;;24.73;9.80;;;2.40;84.10;;;;;;4972190;28;93522;-70
2023/03/02 01:30:14;;;;;;;27.10;10.38;;;2.40;84.00;;;;;;4972401;28;92319;-71
2023/03/02 01:32:40;;;;;;;25.88;10.23;;;2.40;83.90;;;;;;4974206;28;93169;-73
2023/03/02 01:35:06;;;;;;;27.10;10.80;;;2.50;83.90;;;;;;4971627;28;94757;-73
2023/03/02 01:37:31;;;;;;;25.60;10.45;;;2.50;83.60;;;;;;4969216;28;93918;-70
2023/03/02 01:39:57;;;;;;;28.67;10.48;;;2.50;83.50;;;;;;4972745;28;92473;-72
2023/03/02 01:42:23;;;;;;;23.77;9.32;;;2.50;83.50;;;;;;4969299;28;93221;-70
2023/03/02 01:44:52;;;;;;;23.73;10.25;;;2.50;83.90;;;;;;4973551;28;92990;-70
2023/03/02 01:47:21;;;;;;;27.02;10.68;;;2.50;84.90;;;;;;4971249;28;93401;-71
2023/03/02 01:49:58;;;;;;;26.10;10.35;;;2.50;85.20;;;;;;4973465;28;92532;-70
2023/03/02 01:52:25;;;;;;;23.85;10.18;;;2.50;85.20;;;;;;4970560;28;94074;-70
2023/03/02 01:54:55;;;;;;;27.38;10.70;;;2.50;85.70;;;;;;4972472;28;93380;-72
2023/03/02 01:57:27;;;;;;;27.15;10.30;;;2.50;85.40;;;;;;4967183;28;92160;-71
2023/03/02 01:59:58;;;;;;;24.95;10.70;;;2.60;85.10;;;;;;4967385;28;92595;-71
2023/03/02 02:02:25;;;;;;;27.38;10.98;;;2.60;85.00;;;;;;4965934;28;94051;-71
2023/03/02 02:04:53;;;;;;;26.67;10.30;;;2.60;85.20;;;;;;4968024;28;92439;-71
2023/03/02 02:07:19;;;;;;;27.63;10.52;;;2.60;85.10;;;;;;4971751;28;92779;-71
2023/03/02 02:09:48;;;;;;;26.05;10.68;;;2.50;84.80;;;;;;4973369;28;91925;-71
2023/03/02 02:12:16;;;;;;;26.15;10.93;;;2.50;84.80;;;;;;4967856;28;93361;-74
2023/03/02 02:14:43;;;;;;;28.23;11.23;;;2.60;84.80;;;;;;4970069;28;92641;-73
2023/03/02 02:17:10;;;;;;;28.55;11.52;;;2.60;84.30;;;;;;4972101;28;93661;-71
2023/03/02 02:19:54;;;;;;;24.85;9.93;;;2.60;84.30;;;;;;4973071;28;92612;-71
2023/03/02 02:22:33;;;;;;;23.15;10.18;;;2.60;84.40;;;;;;4970781;28;93229;-69
2023/03/02 02:25:05;;;;;;;25.77;10.15;;;2.60;84.20;;;;;;4975055;28;92790;-70
2023/03/02 02:27:32;;;;;;;26.17;10.18;;;2.60;84.10;;;;;;4971046;28;93037;-73
2023/03/02 02:30:01;;;;;;;23.63;9.65;;;2.60;84.10;;;;;;4971114;28;94051;-72
2023/03/02 02:32:31;;;;;;;24.00;10.10;;;2.60;83.50;;;;;;4967671;28;93456;-70
2023/03/02 02:35:05;;;;;;;24.40;10.38;;;2.70;83.60;;;;;;4968171;28;93708;-70
2023/03/02 02:37:53;;;;;;;24.75;9.88;;;2.70;83.60;;;;;;4970644;28;92749;-70
2023/03/02 02:40:49;;;;;;;23.50;9.85;;;2.60;83.70;;;;;;4963954;28;92493;-70
2023/03/02 02:43:18;;;;;;;25.17;10.63;;;2.60;83.80;;;;;;4965537;28;95302;-69
2023/03/02 02:45:46;;;;;;;24.52;10.00;;;2.60;83.90;;;;;;4971045;28;94643;-69
2023/03/02 02:48:16;;;;;;;22.65;9.63;;;2.50;84.20;;;;;;4965251;28;92488;-69
2023/03/02 02:50:43;;;;;;;23.63;9.65;;;2.40;84.40;;;;;;4968055;28;93029;-69
2023/03/02 02:53:19;;;;;;;25.00;10.02;;;2.40;84.30;;;;;;4971016;28;92741;-68
2023/03/02 02:55:48;;;;;;;23.92;10.10;;;2.40;84.10;;;;;;4971429;28;93023;-69
2023/03/02 02:58:43;;;;;;;25.48;10.20;;;2.50;83.90;;;;;;4967648;28;93682;-71
2023/03/02 03:01:15;;;;;;;28.05;11.18;;;2.40;84.00;;;;;;4971299;28;91426;-69
2023/03/02 03:03:50;;;;;;;25.33;10.57;;;2.40;83.90;;;;;;4964506;28;95529;-68
2023/03/02 03:06:19;;;;;;;23.88;9.98;;;2.40;83.80;;;;;;4967917;28;92860;-68
2023/03/02 03:08:45;;;;;;;25.25;10.20;;;2.30;84.50;;;;;;4966920;28;94680;-71
2023/03/02 03:11:18;;;;;;;24.92;9.80;;;2.20;84.50;;;;;;4962119;28;92964;-69
2023/03/02 03:13:45;;;;;;;25.25;10.32;;;2.20;84.60;;;;;;4967133;28;93881;-71
2023/03/02 03:16:15;;;;;;;24.42;10.20;;;2.20;84.90;;;;;;4970804;28;93042;-71
2023/03/02 03:18:45;;;;;;;28.88;10.52;;;2.10;85.00;;;;;;4964580;28;92488;-72
2023/03/02 03:21:11;;;;;;;24.90;10.57;;;2.10;84.90;;;;;;4970951;28;92570;-69
2023/03/02 03:23:37;;;;;;;28.63;11.27;;;2.10;84.80;;;;;;4964018;28;93107;-74
2023/03/02 03:26:04;;;;;;;23.63;10.15;;;2.00;85.30;;;;;;4964947;28;92223;-72
2023/03/02 03:28:31;;;;;;;23.80;10.05;;;2.00;85.50;;;;;;4967386;28;92799;-71
2023/03/02 03:30:56;;;;;;;25.35;9.95;;;2.00;85.50;;;;;;4964808;28;92881;-70
2023/03/02 03:33:22;;;;;;;24.27;10.05;;;1.90;85.80;;;;;;4969410;28;93771;-72
2023/03/02 03:35:48;;;;;;;25.42;10.57;;;1.90;86.30;;;;;;4969633;28;93850;-70
2023/03/02 03:38:15;;;;;;;25.23;10.18;;;1.80;86.70;;;;;;4970906;28;94043;-69
2023/03/02 03:40:41;;;;;;;25.90;9.70;;;1.80;86.40;;;;;;4968943;28;92594;-71
2023/03/02 03:43:06;;;;;;;21.98;9.25;;;1.80;86.30;;;;;;4969739;28;92427;-69
2023/03/02 03:45:32;;;;;;;25.08;9.60;;;1.80;86.40;;;;;;4972385;28;92437;-71
2023/03/02 03:47:58;;;;;;;21.08;9.13;;;1.80;86.20;;;;;;4971131;28;93886;-70
2023/03/02 03:50:24;;;;;;;24.55;9.75;;;1.80;86.20;;;;;;4972330;28;92914;-70
2023/03/02 03:52:49;;;;;;;24.15;9.48;;;1.80;86.20;;;;;;4969807;28;92590;-70
2023/03/02 03:55:16;;;;;;;24.67;9.35;;;1.70;86.70;;;;;;4968665;28;94469;-69
2023/03/02 03:57:41;;;;;;;25.40;9.35;;;1.70;86.90;;;;;;4968541;28;93602;-70
2023/03/02 04:00:10;;;;;;;22.20;9.57;;;1.70;87.50;;;;;;4968750;28;92736;-70
2023/03/02 04:02:36;;;;;;;24.25;9.43;;;1.60;87.90;;;;;;4976298;28;93509;-70
2023/03/02 04:05:05;;;;;;;24.65;9.63;;;1.60;88.50;;;;;;4971303;28;94304;-71
2023/03/02 04:07:31;;;;;;;25.50;9.30;;;1.60;88.50;;;;;;4971549;28;92766;-70
2023/03/02 04:10:02;;;;;;;22.35;8.88;;;1.60;87.80;;;;;;4970498;28;94040;-71
2023/03/02 04:12:39;;;;;;;23.23;9.52;;;1.60;87.80;;;;;;4970608;28;94492;-71
2023/03/02 04:15:07;;;;;;;24.88;9.57;;;1.70;87.60;;;;;;4966821;28;92472;-70
2023/03/02 04:17:33;;;;;;;22.50;8.95;;;1.70;87.40;;;;;;4969687;28;92651;-69
2023/03/02 04:19:59;;;;;;;21.52;8.88;;;1.70;87.20;;;;;;4971236;28;94351;-69
2023/03/02 04:22:25;;;;;;;22.95;9.43;;;1.70;86.80;;;;;;4970564;28;94907;-71
2023/03/02 04:24:51;;;;;;;23.58;9.48;;;1.60;86.90;;;;;;4966451;28;93965;-73
2023/03/02 04:27:17;;;;;;;25.35;9.57;;;1.60;87.20;;;;;;4969715;28;92403;-72
2023/03/02 04:29:43;;;;;;;24.52;9.10;;;1.60;87.20;;;;;;4971031;28;95245;-73
2023/03/02 04:32:10;;;;;;;23.77;9.75;;;1.60;86.90;;;;;;4963616;28;92606;-70
2023/03/02 04:34:36;;;;;;;22.10;9.40;;;1.50;87.40;;;;;;4972535;28;92537;-71
2023/03/02 04:37:02;;;;;;;23.10;9.00;;;1.50;88.40;;;;;;4975746;28;92273;-71
2023/03/02 04:39:28;;;;;;;23.50;9.20;;;1.40;88.20;;;;;;4978174;28;92148;-71
2023/03/02 04:41:54;;;;;;;21.55;8.75;;;1.40;88.20;;;;;;4967493;28;93858;-72
2023/03/02 04:44:20;;;;;;;22.20;9.00;;;1.40;88.30;;;;;;4968511;28;93418;-70
2023/03/02 04:46:46;;;;;;;23.33;8.88;;;1.40;88.50;;;;;;4970091;28;93466;-69
2023/03/02 04:49:14;;;;;;;21.38;8.48;;;1.40;87.90;;;;;;4972280;28;92487;-71
2023/03/02 04:51:43;;;;;;;22.75;9.07;;;1.40;87.60;;;;;;4988951;28;93587;-72
2023/03/02 04:54:22;;;;;;;24.02;8.93;;;1.30;88.00;;;;;;4978939;28;93202;-73
2023/03/02 04:56:48;;;;;;;21.30;8.88;;;1.30;88.20;;;;;;4974647;28;92333;-70
2023/03/02 04:59:15;;;;;;;23.10;9.32;;;1.20;88.10;;;;;;4975092;28;92728;-68
2023/03/02 05:01:41;;;;;;;25.17;9.52;;;1.30;88.30;;;;;;4980113;28;92700;-71
2023/03/02 05:04:07;;;;;;;24.73;9.40;;;1.20;88.40;;;;;;4985950;28;92788;-69
2023/03/02 05:06:32;;;;;;;23.05;8.43;;;1.20;88.60;;;;;;4978071;28;92464;-71
2023/03/02 05:08:58;;;;;;;21.90;8.80;;;1.20;88.00;;;;;;4978009;28;92582;-71
2023/03/02 05:11:25;;;;;;;21.98;9.05;;;1.20;89.10;;;;;;4985018;28;93597;-70
2023/03/02 05:13:53;;;;;;;21.95;9.15;;;1.20;88.60;;;;;;4977451;28;94104;-69
2023/03/02 05:16:21;;;;;;;24.92;9.18;;;1.20;88.90;;;;;;4978464;28;92597;-69
2023/03/02 05:18:46;;;;;;;22.63;9.02;;;1.20;88.40;;;;;;4990646;28;92458;-69
2023/03/02 05:21:13;;;;;;;21.98;8.48;;;1.20;88.90;;;;;;4977718;28;92701;-71
2023/03/02 05:23:40;;;;;;;21.95;9.30;;;1.10;88.40;;;;;;4975875;28;93093;-70
2023/03/02 05:26:06;;;;;;;26.20;9.43;;;1.10;89.00;;;;;;4976917;28;92663;-69
2023/03/02 05:28:32;;;;;;;21.20;8.55;;;1.10;89.20;;;;;;4995657;28;91919;-69
2023/03/02 05:30:59;;;;;;;24.67;9.20;;;1.10;89.50;;;;;;4997251;28;93693;-69
2023/03/02 05:33:25;;;;;;;19.95;8.07;;;1.10;89.40;;;;;;4981759;28;92777;-70
2023/03/02 05:35:51;;;;;;;23.17;8.73;;;1.00;89.00;;;;;;4978377;28;93540;-68
2023/03/02 05:38:16;;;;;;;25.13;9.15;;;1.00;89.70;;;;;;4979342;28;92464;-69
2023/03/02 05:40:43;;;;;;;22.55;8.77;;;1.00;90.00;;;;;;4977382;28;93457;-70
2023/03/02 05:43:12;;;;;;;24.60;9.35;;;1.00;89.70;;;;;;4976738;28;92928;-70
2023/03/02 05:45:38;;;;;;;24.15;8.77;;;1.00;89.50;;;;;;4974174;28;92407;-71
2023/03/02 05:48:05;;;;;;;21.83;9.18;;;1.10;90.00;;;;;;4968963;28;94003;-68
2023/03/02 05:50:31;;;;;;;27.98;9.20;;;1.10;89.60;;;;;;4973900;28;93816;-69
2023/03/02 05:52:59;;;;;;;21.95;8.98;;;1.10;89.60;;;;;;4993003;28;92261;-70
2023/03/02 05:55:25;;;;;;;23.92;9.05;;;1.10;90.00;;;;;;4970490;28;94296;-71
2023/03/02 05:57:51;;;;;;;23.23;9.57;;;1.00;89.30;;;;;;4976644;28;92623;-69
2023/03/02 06:00:18;;;;;;;24.48;9.73;;;1.10;89.70;;;;;;4971835;28;94625;-71
2023/03/02 06:02:44;;;;;;;25.67;9.50;;;1.00;89.60;;;;;;4979970;28;95554;-70
2023/03/02 06:05:16;;;;;;;24.17;8.68;;;1.00;90.00;;;;;;4974521;28;92491;-73
2023/03/02 06:07:42;;;;;;;26.65;9.38;;;1.00;90.00;;;;;;4972463;28;93190;-69
2023/03/02 06:10:11;;;;;;;26.83;9.65;;;1.00;90.10;;;;;;4971323;28;93652;-70
2023/03/02 06:12:36;;;;;;;24.42;9.27;;;1.00;90.00;;;;;;4974254;28;93290;-70
2023/03/02 06:15:04;;;;;;;24.05;9.05;;;1.10;90.20;;;;;;4972117;28;92399;-71
2023/03/02 06:17:30;;;;;;;23.90;9.15;;;1.20;89.60;;;;;;4975796;28;91417;-70
2023/03/02 06:19:55;;;;;;;25.10;9.80;;;1.20;90.10;;;;;;4974577;28;92562;-72
2023/03/02 06:22:21;;;;;;;25.70;9.55;;;1.20;89.60;;;;;;4969748;28;92551;-70
2023/03/02 06:24:47;;;;;;;24.42;9.43;;;1.30;89.60;;;;;;4965045;28;93652;-70
2023/03/02 06:27:13;;;;;;;24.30;9.02;;;1.30;88.60;;;;;;4973132;28;92745;-68
2023/03/02 06:29:39;;;;;;;25.92;9.52;;;1.40;89.30;;;;;;4976262;28;93078;-70
2023/03/02 06:32:05;;;;;;;20.38;8.60;;;1.50;89.60;;;;;;4969646;28;92983;-70
2023/03/02 06:34:31;;;;;;;28.08;9.48;;;1.60;89.20;;;;;;4971171;28;93598;-73
2023/03/02 06:36:56;;;;;;;27.38;10.15;;;1.80;88.90;;;;;;4970203;28;93408;-73
2023/03/02 06:39:22;;;;;;;25.75;9.48;;;2.30;88.40;;;;;;4969734;28;92686;-71
2023/03/02 06:41:48;;;;;;;24.70;9.52;;;3.00;86.30;;;;;;4984065;28;93388;-73
2023/03/02 06:44:15;;;;;;;20.75;9.30;;;3.70;82.40;;;;;;4975407;28;92126;-72
2023/03/02 06:46:42;;;;;;;24.67;9.68;;;4.40;79.80;;;;;;4979715;28;92201;-71
2023/03/02 06:49:09;;;;;;;23.80;9.45;;;5.20;78.00;;;;;;4975763;28;93827;-70
2023/03/02 06:51:35;;;;;;;22.50;10.45;;;5.90;75.20;;;;;;4973525;28;93414;-72
2023/03/02 06:54:01;;;;;;;21.20;9.70;;;6.40;73.10;;;;;;4974322;28;92839;-70
2023/03/02 06:56:27;;;;;;;23.52;9.32;;;6.80;71.40;;;;;;4973923;28;92110;-71
2023/03/02 06:58:52;;;;;;;19.67;9.18;;;7.30;69.10;;;;;;4973727;28;93899;-71
2023/03/02 07:01:18;;;;;;;22.33;10.45;;;7.90;66.70;;;;;;4984554;28;92716;-69
2023/03/02 07:03:45;;;;;;;18.48;9.88;;;7.90;66.40;;;;;;4970078;28;92497;-69
2023/03/02 07:06:13;;;;;;;23.38;9.85;;;8.40;65.90;;;;;;4977377;28;91608;-68
2023/03/02 07:08:40;;;;;;;20.55;10.48;;;9.10;64.70;;;;;;4969844;28;93297;-72
2023/03/02 07:11:11;;;;;;;20.38;10.65;;;10.00;61.80;;;;;;4976126;28;93134;-70
2023/03/02 07:13:40;;;;;;;25.40;10.70;;;10.60;59.30;;;;;;4982945;28;94290;-69
2023/03/02 07:16:10;;;;;;;22.40;10.40;;;10.40;58.40;;;;;;4977509;28;92326;-70
2023/03/02 07:18:36;;;;;;;19.65;10.70;;;10.20;59.50;;;;;;4986602;28;93036;-72
2023/03/02 07:21:02;;;;;;;22.67;10.75;;;10.50;59.20;;;;;;4970219;28;93481;-71
2023/03/02 07:23:28;;;;;;;17.95;9.65;;;10.70;59.10;;;;;;4974272;28;92650;-71
2023/03/02 07:25:54;;;;;;;18.75;10.48;;;10.90;57.90;;;;;;4976190;28;92971;-71
2023/03/02 07:28:22;;;;;;;19.60;10.02;;;11.20;57.10;;;;;;4972258;28;93610;-70
2023/03/02 07:30:49;;;;;;;20.70;10.48;;;11.30;56.60;;;;;;4970495;28;92342;-68
2023/03/02 07:33:14;;;;;;;20.30;9.98;;;11.30;55.80;;;;;;4973172;28;92549;-70
2023/03/02 07:35:40;;;;;;;21.20;10.18;;;11.20;56.70;;;;;;4980779;28;92918;-72
2023/03/02 07:38:06;;;;;;;19.92;10.77;;;11.20;56.10;;;;;;4975165;28;95599;-71
2023/03/02 07:40:32;;;;;;;20.27;10.80;;;11.60;56.40;;;;;;4978571;28;93608;-70
2023/03/02 07:42:58;;;;;;;25.13;11.35;;;12.40;54.30;;;;;;4970453;28;92821;-70
2023/03/02 07:45:25;;;;;;;20.13;11.13;;;13.10;52.90;;;;;;4974862;28;94370;-70
2023/03/02 07:47:51;;;;;;;18.75;11.10;;;13.70;51.70;;;;;;4929260;28;1256866;-72
2023/03/02 07:50:17;;;;;;;22.45;11.65;;;14.60;49.50;;;;;;4968213;28;92977;-73
2023/03/02 07:52:42;;;;;;;21.92;11.43;;;15.50;49.10;;;;;;4978125;28;92477;-71
2023/03/02 07:55:08;;;;;;;23.10;11.52;;;16.20;45.40;;;;;;4977336;28;91911;-71
2023/03/02 07:57:34;;;;;;;20.73;11.50;;;16.90;45.20;;;;;;4975935;28;93181;-70
2023/03/02 08:00:00;;;;;;;21.42;13.23;;;17.60;44.30;;;;;;4980677;28;92821;-72
2023/03/02 08:02:26;;;;;;;21.98;13.20;;;17.70;43.00;;;;;;4975397;28;93394;-71
2023/03/02 08:04:52;;;;;;;27.20;13.98;;;17.70;44.10;;;;;;4972225;28;92612;-72
2023/03/02 08:07:17;;;;;;;25.95;12.82;;;17.90;43.40;;;;;;4974290;28;92300;-70
2023/03/02 08:09:43;;;;;;;22.02;12.77;;;18.70;41.50;;;;;;4974549;28;92894;-71
2023/03/02 08:12:09;;;;;;;19.00;12.20;;;19.70;41.20;;;;;;4974264;28;92553;-73
2023/03/02 08:14:36;;;;;;;21.73;12.90;;;19.90;39.90;;;;;;4974642;28;92401;-71
2023/03/02 08:17:04;;;;;;;22.00;12.93;;;18.70;40.70;;;;;;4978772;28;92813;-71
2023/03/02 08:19:30;;;;;;;25.58;14.48;;;17.50;41.40;;;;;;4975349;28;92949;-71
2023/03/02 08:21:55;;;;;;;24.15;12.13;;;16.40;44.40;;;;;;4974525;28;92440;-70
2023/03/02 08:24:21;;;;;;;23.27;13.18;;;15.50;44.50;;;;;;4975610;28;92651;-70
2023/03/02 08:26:47;;;;;;;22.63;12.15;;;15.50;45.00;;;;;;4973897;28;94604;-70
2023/03/02 08:29:12;;;;;;;25.45;13.73;;;14.60;46.50;;;;;;4974660;28;93358;-71
2023/03/02 08:31:38;;;;;;;29.67;13.45;;;14.00;47.80;;;;;;4974484;28;92102;-70
2023/03/02 08:34:04;;;;;;;27.58;14.52;;;13.60;48.90;;;;;;4974563;28;92739;-71
2023/03/02 08:36:30;;;;;;;29.50;14.23;;;13.10;49.80;;;;;;4972698;28;92767;-70
2023/03/02 08:38:56;;;;;;;27.13;13.93;;;12.90;50.20;;;;;;4974609;28;92856;-69
2023/03/02 08:41:22;;;;;;;22.52;12.75;;;12.30;51.50;;;;;;4974354;28;92085;-70
2023/03/02 08:43:49;;;;;;;26.08;13.35;;;11.90;52.30;;;;;;4974882;28;91473;-71
2023/03/02 08:46:17;;;;;;;30.80;13.32;;;11.80;52.70;;;;;;4974662;28;92631;-71
2023/03/02 08:48:43;;;;;;;31.77;13.88;;;11.40;54.30;;;;;;4973638;28;92381;-71
2023/03/02 08:51:14;;;;;;;27.42;14.18;;;11.40;54.60;;;;;;4979879;28;93584;-71
2023/03/02 08:53:42;;;;;;;27.48;13.27;;;11.50;54.00;;;;;;4974733;28;92592;-70
2023/03/02 08:56:19;;;;;;;26.25;13.07;;;11.20;54.80;;;;;;4974578;28;93214;-70
2023/03/02 08:58:45;;;;;;;24.17;13.13;;;11.20;55.30;;;;;;4987643;28;94076;-71
2023/03/02 09:01:19;;;;;;;25.20;12.57;;;11.20;54.90;;;;;;4973843;28;92967;-72
2023/03/02 09:03:45;;;;;;;25.23;12.95;;;10.70;55.60;;;;;;4971328;28;92611;-70
2023/03/02 09:06:11;;;;;;;25.75;13.05;;;10.60;56.10;;;;;;4975493;28;93751;-70
2023/03/02 09:08:38;;;;;;;25.20;13.02;;;10.20;57.10;;;;;;4971796;28;92288;-70
2023/03/02 09:11:04;;;;;;;24.00;12.45;;;10.00;58.20;;;;;;4976513;28;92436;-72
2023/03/02 09:13:29;;;;;;;28.15;12.98;;;10.00;58.40;;;;;;4972303;28;92704;-70
2023/03/02 09:15:55;;;;;;;27.40;12.43;;;9.90;58.60;;;;;;4974022;28;94378;-70
2023/03/02 09:18:21;;;;;;;31.27;13.40;;;9.90;58.90;;;;;;4972473;28;92958;-71
2023/03/02 09:20:50;;;;;;;24.42;12.00;;;9.70;59.90;;;;;;4977122;28;92135;-69
2023/03/02 09:23:17;;;;;;;28.85;12.65;;;9.70;60.20;;;;;;4971393;28;92578;-70
2023/03/02 09:25:42;;;;;;;26.02;11.88;;;9.70;61.60;;;;;;4974930;28;93095;-70
2023/03/02 09:28:10;;;;;;;24.45;12.07;;;9.80;61.40;;;;;;4971130;28;92573;-70
2023/03/02 09:30:36;;;;;;;23.60;11.65;;;9.70;61.70;;;;;;4971327;28;93675;-72
2023/03/02 09:33:01;;;;;;;27.20;11.85;;;9.60;61.30;;;;;;4974021;28;91749;-70
2023/03/02 09:35:27;;;;;;;29.88;13.93;;;9.50;61.10;;;;;;4974209;28;93651;-70
2023/03/02 09:37:53;;;;;;;23.60;11.80;;;9.50;62.90;;;;;;4972934;28;92449;-70
2023/03/02 09:40:22;;;;;;;26.20;12.02;;;9.40;62.50;;;;;;4972472;28;93267;-69
2023/03/02 09:43:26;;;;;;;24.55;11.88;;;9.40;63.00;;;;;;4972223;28;92537;-70
2023/03/02 09:46:17;;;;;;;24.95;11.18;;;9.60;61.70;;;;;;4974134;28;93216;-71
2023/03/02 09:49:10;;;;;;;23.38;11.27;;;9.50;60.80;;;;;;4978509;28;93847;-70
2023/03/02 09:52:01;;;;;;;25.02;11.68;;;9.50;61.70;;;;;;4977359;28;92474;-69
2023/03/02 09:54:28;;;;;;;26.90;12.15;;;9.30;62.90;;;;;;4979468;28;92127;-71
2023/03/02 09:56:58;;;;;;;24.45;11.88;;;9.10;62.10;;;;;;4978171;28;93579;-72
2023/03/02 09:59:29;;;;;;;26.42;11.77;;;8.90;63.30;;;;;;4976757;28;92410;-71
2023/03/02 10:02:13;;;;;;;27.80;11.50;;;8.80;62.70;;;;;;4976871;28;92407;-69
2023/03/02 10:04:45;;;;;;;26.30;11.95;;;8.70;63.60;;;;;;4977130;28;92215;-69
2023/03/02 10:07:28;;;;;;;25.88;11.30;;;8.80;63.50;;;;;;4975111;28;94542;-70
2023/03/02 10:09:58;;;;;;;21.13;11.02;;;8.70;63.10;;;;;;4976536;28;94410;-70
2023/03/02 10:12:24;;;;;;;;;;;8.70;62.90;;;;;;4976041;28;92740;-70
2023/03/02 10:15:11;;;;;;;25.25;12.02;;;8.80;63.30;;;;;;4976731;28;92419;-69
2023/03/02 10:17:58;;;;;;;25.25;11.65;;;8.80;63.40;;;;;;4976670;28;92794;-69
2023/03/02 10:20:33;;;;;;;24.25;11.18;;;9.00;62.80;;;;;;4988984;28;93444;-71
2023/03/02 10:23:15;;;;;;;26.80;11.60;;;9.00;61.60;;;;;;4980004;28;92307;-71
2023/03/02 10:25:49;;;;;;;24.92;11.95;;;8.90;62.30;;;;;;4979702;28;91873;-71
2023/03/02 10:28:24;;;;;;;25.88;11.75;;;9.00;62.30;;;;;;4977019;28;93151;-70
2023/03/02 10:31:05;;;;;;;29.98;12.77;;;9.20;62.60;;;;;;4974387;28;93482;-70
2023/03/02 10:33:32;;;;;;;22.58;11.18;;;9.50;62.60;;;;;;4978546;28;93322;-70
2023/03/02 10:35:59;;;;;;;27.15;12.68;;;9.50;62.20;;;;;;4977981;28;92617;-70
2023/03/02 10:38:28;;;;;;;28.85;12.95;;;9.60;61.60;;;;;;4977750;28;92594;-70
2023/03/02 10:40:58;;;;;;;27.73;12.90;;;9.60;62.30;;;;;;4974779;28;92915;-72
2023/03/02 10:43:35;;;;;;;27.45;13.07;;;9.40;62.70;;;;;;4978370;28;92571;-71
2023/03/02 10:46:06;;;;;;;26.95;12.75;;;9.20;62.80;;;;;;4976902;28;93045;-70
2023/03/02 10:48:44;;;;;;;31.30;13.27;;;9.20;62.70;;;;;;4975261;28;93169;-71
2023/03/02 10:51:30;;;;;;;28.90;12.80;;;9.20;64.10;;;;;;4975341;28;92383;-70
2023/03/02 10:54:05;;;;;;;23.83;10.57;;;9.10;62.10;;;;;;4972267;28;94148;-69
2023/03/02 10:56:32;;;;;;;29.23;13.27;;;9.00;64.80;;;;;;4970227;28;92337;-72
2023/03/02 10:59:02;;;;;;;27.58;13.07;;;9.00;63.30;;;;;;4973500;28;94015;-71
2023/03/02 11:01:29;;;;;;;28.17;13.15;;;8.90;62.90;;;;;;4981259;28;94591;-70
2023/03/02 11:03:57;;;;;;;27.40;12.15;;;8.80;63.70;;;;;;4973492;28;92471;-72
2023/03/02 11:06:23;;;;;;;28.42;13.10;;;8.70;63.90;;;;;;4966847;28;92502;-73
2023/03/02 11:09:03;;;;;;;27.70;12.27;;;8.60;64.40;;;;;;4969250;28;92567;-74
2023/03/02 11:11:30;;;;;;;27.30;12.20;;;8.50;64.60;;;;;;4975326;28;93328;-71
2023/03/02 11:14:07;;;;;;;24.58;11.70;;;8.50;65.10;;;;;;4964268;28;94231;-71
2023/03/02 11:16:33;;;;;;;25.90;11.85;;;8.40;64.60;;;;;;4965987;28;91803;-71
2023/03/02 11:19:04;;;;;;;28.40;12.25;;;8.40;64.70;;;;;;4963899;28;93206;-70
2023/03/02 11:21:42;;;;;;;30.52;12.82;;;8.40;66.00;;;;;;4963759;28;93004;-70
2023/03/02 11:24:22;;;;;;;31.88;13.55;;;8.30;66.80;;;;;;4960348;28;93432;-72
2023/03/02 11:26:54;;;;;;;29.05;13.23;;;8.30;66.70;;;;;;4972501;28;92738;-70
2023/03/02 11:29:36;;;;;;;25.23;11.48;;;8.40;65.90;;;;;;4968549;28;92589;-70
2023/03/02 11:32:14;;;;;;;29.63;13.40;;;8.40;65.80;;;;;;4960610;28;94369;-69
2023/03/02 11:34:53;;;;;;;29.27;12.60;;;8.30;66.10;;;;;;4955918;28;92740;-72
2023/03/02 11:37:41;;;;;;;28.90;12.35;;;8.30;66.80;;;;;;4966611;28;92426;-73
2023/03/02 11:40:28;;;;;;;29.08;13.00;;;8.30;67.60;;;;;;4971673;28;92756;-69
2023/03/02 11:42:57;;;;;;;26.10;12.13;;;8.30;66.40;;;;;;4967188;28;94125;-72
2023/03/02 11:45:26;;;;;;;26.48;11.85;;;8.30;66.70;;;;;;4969593;28;92717;-71
2023/03/02 11:48:11;;;;;;;25.70;12.10;;;8.20;66.10;;;;;;4968981;28;94290;-71
2023/03/02 11:51:04;;;;;;;29.85;12.93;;;8.30;66.40;;;;;;4959058;28;95585;-72
2023/03/02 11:53:56;;;;;;;31.45;12.25;;;8.20;67.00;;;;;;4964327;28;96471;-70
2023/03/02 11:56:23;;;;;;;34.10;11.88;;;8.10;67.70;;;;;;4960839;28;93111;-71
2023/03/02 11:58:56;;;;;;;31.92;12.45;;;8.10;67.50;;;;;;4963961;28;92498;-70
2023/03/02 12:01:24;;;;;;;29.38;12.25;;;8.10;67.50;;;;;;4968700;28;93870;-70
2023/03/02 12:03:51;;;;;;;27.98;12.40;;;8.20;67.50;;;;;;4960582;28;94078;-71
2023/03/02 12:06:19;;;;;;;35.15;14.07;;;8.20;67.70;;;;;;4964837;28;93121;-72
2023/03/02 12:08:48;;;;;;;30.67;12.90;;;8.20;68.50;;;;;;4965443;28;92549;-72
2023/03/02 12:11:16;;;;;;;29.05;12.68;;;8.20;68.00;;;;;;4966520;28;94184;-71
2023/03/02 12:13:51;;;;;;;29.63;12.95;;;8.30;67.50;;;;;;4966271;28;92491;-72
2023/03/02 12:16:55;;;;;;;33.63;13.45;;;8.30;67.60;;;;;;4967679;28;93761;-71
2023/03/02 12:19:26;;;;;;;33.75;13.00;;;8.30;67.60;;;;;;4952396;28;92664;-71
2023/03/02 12:22:01;;;;;;;36.15;13.00;;;8.20;68.10;;;;;;4977576;28;92975;-71
2023/03/02 12:24:31;;;;;;;34.63;13.75;;;8.20;68.80;;;;;;4975321;28;93436;-71
2023/03/02 12:27:14;;;;;;;33.20;13.65;;;8.10;68.30;;;;;;4973512;28;92304;-73
2023/03/02 12:29:48;;;;;;;36.13;13.73;;;8.20;69.20;;;;;;4972323;28;92400;-72
2023/03/02 12:32:17;;;;;;;38.70;14.57;;;8.10;69.00;;;;;;4974531;28;92879;-74
2023/03/02 12:35:04;;;;;;;36.35;13.77;;;8.00;69.80;;;;;;4975299;28;92969;-73
2023/03/02 12:37:31;;;;;;;37.67;14.85;;;8.00;69.50;;;;;;4969567;28;92368;-71
2023/03/02 12:40:12;;;;;;;34.05;14.02;;;8.00;69.30;;;;;;4992009;28;92184;-75
2023/03/02 12:43:09;;;;;;;36.38;13.93;;;8.00;69.70;;;;;;4968430;28;93703;-70
2023/03/02 12:45:48;;;;;;;37.15;14.35;;;8.00;69.20;;;;;;4974279;28;93830;-70
2023/03/02 12:48:30;;;;;;;36.60;15.70;;;8.00;69.50;;;;;;4974048;28;92791;-71
2023/03/02 12:51:02;;;;;;;35.53;14.85;;;8.00;70.00;;;;;;4971079;28;92487;-73